Mc Minnville, Tennessee
Current Conditions -  °F | °C
As of 6:15 AM on Friday 31 Oct 2014 (Local Time) from KRNC Reporting Station
Broken Clouds Broken Clouds  
Wind Chill: 45°   Ceiling: 7000
Heat Index: 45°   Visibility: 10mi
Dew Point: 45°   Wind: 0mph
Humidity: 100%   Direction: NA
Pressure: 29.98"   Gusts: NA
Location:  35.6563°N, 85.7837°W
Report Text: KRNC 311115Z AUTO 00000KT 10SM BKN070 BKN090 BKN120 07/07 A2998 RMK
Loading
Personal Weather Stations






























Interactive Weather Map
Tropical Storm Tracking
New forecast layout! Learn more

10-Day Weather Forecast

Advertisements
Track Severe Weather on mobile